sensor_id;sensor_type;location;lat;lon;timestamp;pressure;altitude;pressure_sealevel;temperature;humidity
36520;BME280;40269;46.742;9.778;2022-12-18T00:01:15;86072.84;;;-13.97;46.29
36520;BME280;40269;46.742;9.778;2022-12-18T00:03:43;86076.43;;;-14.13;45.73
36520;BME280;40269;46.742;9.778;2022-12-18T00:06:10;86078.86;;;-15.59;49.43
36520;BME280;40269;46.742;9.778;2022-12-18T00:08:37;86075.32;;;-15.98;52.81
36520;BME280;40269;46.742;9.778;2022-12-18T00:11:05;86078.20;;;-14.47;48.31
36520;BME280;40269;46.742;9.778;2022-12-18T00:13:33;86082.06;;;-15.79;50.99
36520;BME280;40269;46.742;9.778;2022-12-18T00:16:02;86085.36;;;-15.44;49.70
36520;BME280;40269;46.742;9.778;2022-12-18T00:18:29;86085.46;;;-14.32;47.71
36520;BME280;40269;46.742;9.778;2022-12-18T00:20:59;86086.77;;;-13.94;47.17
36520;BME280;40269;46.742;9.778;2022-12-18T00:23:27;86087.52;;;-12.71;44.03
36520;BME280;40269;46.742;9.778;2022-12-18T00:25:54;86093.72;;;-13.86;44.06
36520;BME280;40269;46.742;9.778;2022-12-18T00:28:21;86096.64;;;-14.63;46.96
36520;BME280;40269;46.742;9.778;2022-12-18T00:30:48;86098.11;;;-14.90;49.18
36520;BME280;40269;46.742;9.778;2022-12-18T00:33:16;86097.78;;;-16.74;52.82
36520;BME280;40269;46.742;9.778;2022-12-18T00:35:43;86099.29;;;-16.02;51.81
36520;BME280;40269;46.742;9.778;2022-12-18T00:38:10;86101.89;;;-15.72;51.06
36520;BME280;40269;46.742;9.778;2022-12-18T00:40:37;86103.03;;;-14.02;47.25
36520;BME280;40269;46.742;9.778;2022-12-18T00:43:05;86103.07;;;-16.27;52.51
36520;BME280;40269;46.742;9.778;2022-12-18T00:45:32;86106.12;;;-16.37;53.90
36520;BME280;40269;46.742;9.778;2022-12-18T00:47:59;86108.65;;;-15.14;51.15
36520;BME280;40269;46.742;9.778;2022-12-18T00:50:27;86113.67;;;-13.65;47.68
36520;BME280;40269;46.742;9.778;2022-12-18T00:52:53;86114.67;;;-13.39;45.52
36520;BME280;40269;46.742;9.778;2022-12-18T00:55:21;86121.40;;;-15.89;51.40
36520;BME280;40269;46.742;9.778;2022-12-18T00:57:48;86124.89;;;-16.76;53.93
36520;BME280;40269;46.742;9.778;2022-12-18T01:00:17;86124.01;;;-16.55;53.38
36520;BME280;40269;46.742;9.778;2022-12-18T01:02:44;86121.95;;;-14.29;49.50
36520;BME280;40269;46.742;9.778;2022-12-18T01:05:13;86126.76;;;-15.47;49.96
36520;BME280;40269;46.742;9.778;2022-12-18T01:07:40;86129.63;;;-15.22;49.67
36520;BME280;40269;46.742;9.778;2022-12-18T01:10:09;86133.03;;;-15.31;48.99
36520;BME280;40269;46.742;9.778;2022-12-18T01:12:37;86132.55;;;-15.57;49.77
36520;BME280;40269;46.742;9.778;2022-12-18T01:15:07;86133.91;;;-16.13;51.14
36520;BME280;40269;46.742;9.778;2022-12-18T01:17:34;86140.63;;;-17.21;56.06
36520;BME280;40269;46.742;9.778;2022-12-18T01:20:02;86137.89;;;-16.60;54.25
36520;BME280;40269;46.742;9.778;2022-12-18T01:22:29;86137.39;;;-15.17;49.61
36520;BME280;40269;46.742;9.778;2022-12-18T01:24:56;86142.51;;;-15.59;51.48
36520;BME280;40269;46.742;9.778;2022-12-18T01:27:23;86154.11;;;-17.96;59.41
36520;BME280;40269;46.742;9.778;2022-12-18T01:29:51;86153.08;;;-16.33;55.59
36520;BME280;40269;46.742;9.778;2022-12-18T01:32:18;86152.38;;;-15.08;50.31
36520;BME280;40269;46.742;9.778;2022-12-18T01:34:46;86157.85;;;-15.25;49.75
36520;BME280;40269;46.742;9.778;2022-12-18T01:37:13;86159.68;;;-15.24;50.43
36520;BME280;40269;46.742;9.778;2022-12-18T01:39:40;86160.17;;;-13.83;47.25
36520;BME280;40269;46.742;9.778;2022-12-18T01:42:12;86162.24;;;-15.34;49.23
36520;BME280;40269;46.742;9.778;2022-12-18T01:44:55;86160.75;;;-15.01;47.94
36520;BME280;40269;46.742;9.778;2022-12-18T01:47:25;86162.25;;;-15.43;49.87
36520;BME280;40269;46.742;9.778;2022-12-18T01:49:55;86163.47;;;-14.98;50.37
36520;BME280;40269;46.742;9.778;2022-12-18T01:52:24;86162.60;;;-13.29;46.34
36520;BME280;40269;46.742;9.778;2022-12-18T01:54:53;86161.79;;;-15.05;48.09
36520;BME280;40269;46.742;9.778;2022-12-18T01:57:22;86161.34;;;-14.56;47.70
36520;BME280;40269;46.742;9.778;2022-12-18T01:59:52;86160.78;;;-14.56;47.63
36520;BME280;40269;46.742;9.778;2022-12-18T02:02:20;86159.38;;;-15.18;49.40
36520;BME280;40269;46.742;9.778;2022-12-18T02:04:47;86165.36;;;-17.22;54.87
36520;BME280;40269;46.742;9.778;2022-12-18T02:07:20;86171.35;;;-17.80;58.86
36520;BME280;40269;46.742;9.778;2022-12-18T02:09:55;86169.66;;;-18.06;59.91
36520;BME280;40269;46.742;9.778;2022-12-18T02:12:29;86166.81;;;-18.69;61.64
36520;BME280;40269;46.742;9.778;2022-12-18T02:15:10;86163.17;;;-17.37;59.77
36520;BME280;40269;46.742;9.778;2022-12-18T02:17:42;86152.84;;;-16.79;56.04
36520;BME280;40269;46.742;9.778;2022-12-18T02:20:16;86158.66;;;-17.14;56.56
36520;BME280;40269;46.742;9.778;2022-12-18T02:23:01;86154.10;;;-16.53;54.54
36520;BME280;40269;46.742;9.778;2022-12-18T02:25:42;86160.49;;;-17.18;56.00
36520;BME280;40269;46.742;9.778;2022-12-18T02:28:15;86154.47;;;-13.99;48.10
36520;BME280;40269;46.742;9.778;2022-12-18T02:30:46;86158.89;;;-16.47;53.68
36520;BME280;40269;46.742;9.778;2022-12-18T02:33:15;86164.64;;;-17.57;57.48
36520;BME280;40269;46.742;9.778;2022-12-18T02:35:44;86164.44;;;-17.66;57.73
36520;BME280;40269;46.742;9.778;2022-12-18T02:38:12;86164.11;;;-18.07;58.99
36520;BME280;40269;46.742;9.778;2022-12-18T02:40:42;86168.45;;;-18.26;60.11
36520;BME280;40269;46.742;9.778;2022-12-18T02:43:11;86168.33;;;-18.07;59.49
36520;BME280;40269;46.742;9.778;2022-12-18T02:45:47;86172.48;;;-17.56;58.36
36520;BME280;40269;46.742;9.778;2022-12-18T02:48:14;86167.35;;;-16.46;53.93
36520;BME280;40269;46.742;9.778;2022-12-18T02:50:46;86169.81;;;-15.32;50.83
36520;BME280;40269;46.742;9.778;2022-12-18T02:53:24;86170.99;;;-16.25;52.66
36520;BME280;40269;46.742;9.778;2022-12-18T02:56:00;86166.35;;;-15.37;52.15
36520;BME280;40269;46.742;9.778;2022-12-18T02:58:34;86170.12;;;-15.27;51.43
36520;BME280;40269;46.742;9.778;2022-12-18T03:01:10;86169.76;;;-14.91;51.20
36520;BME280;40269;46.742;9.778;2022-12-18T03:03:41;86169.76;;;-13.58;48.17
36520;BME280;40269;46.742;9.778;2022-12-18T03:06:18;86167.29;;;-15.25;50.41
36520;BME280;40269;46.742;9.778;2022-12-18T03:08:51;86166.05;;;-13.01;45.65
36520;BME280;40269;46.742;9.778;2022-12-18T03:11:20;86170.68;;;-15.31;50.57
36520;BME280;40269;46.742;9.778;2022-12-18T03:13:51;86173.81;;;-16.65;53.12
36520;BME280;40269;46.742;9.778;2022-12-18T03:16:24;86181.43;;;-18.24;59.31
36520;BME280;40269;46.742;9.778;2022-12-18T03:18:56;86180.85;;;-17.57;57.85
36520;BME280;40269;46.742;9.778;2022-12-18T03:21:29;86180.82;;;-16.67;55.96
36520;BME280;40269;46.742;9.778;2022-12-18T03:24:00;86180.78;;;-15.94;52.21
36520;BME280;40269;46.742;9.778;2022-12-18T03:26:30;86181.00;;;-14.24;48.37
36520;BME280;40269;46.742;9.778;2022-12-18T03:29:02;86177.75;;;-14.27;48.94
36520;BME280;40269;46.742;9.778;2022-12-18T03:31:32;86180.12;;;-14.84;48.30
36520;BME280;40269;46.742;9.778;2022-12-18T03:34:02;86184.63;;;-13.54;46.83
36520;BME280;40269;46.742;9.778;2022-12-18T03:36:30;86187.73;;;-15.39;50.51
36520;BME280;40269;46.742;9.778;2022-12-18T03:38:58;86184.95;;;-15.34;50.65
36520;BME280;40269;46.742;9.778;2022-12-18T03:41:29;86185.59;;;-15.42;50.79
36520;BME280;40269;46.742;9.778;2022-12-18T03:44:03;86185.31;;;-16.64;51.97
36520;BME280;40269;46.742;9.778;2022-12-18T03:46:45;86192.30;;;-18.51;59.37
36520;BME280;40269;46.742;9.778;2022-12-18T03:49:21;86192.11;;;-16.99;56.50
36520;BME280;40269;46.742;9.778;2022-12-18T03:51:54;86185.97;;;-16.25;53.19
36520;BME280;40269;46.742;9.778;2022-12-18T03:54:25;86188.78;;;-16.84;55.16
36520;BME280;40269;46.742;9.778;2022-12-18T03:56:59;86193.21;;;-17.40;57.34
36520;BME280;40269;46.742;9.778;2022-12-18T03:59:29;86193.78;;;-17.73;57.76
36520;BME280;40269;46.742;9.778;2022-12-18T04:01:57;86199.45;;;-17.92;58.82
36520;BME280;40269;46.742;9.778;2022-12-18T04:04:27;86203.85;;;-18.64;63.67
36520;BME280;40269;46.742;9.778;2022-12-18T04:06:56;86208.85;;;-18.41;61.80
36520;BME280;40269;46.742;9.778;2022-12-18T04:09:24;86207.07;;;-16.57;55.34
36520;BME280;40269;46.742;9.778;2022-12-18T04:11:52;86204.22;;;-16.30;54.19
36520;BME280;40269;46.742;9.778;2022-12-18T04:14:19;86210.25;;;-16.75;55.86
36520;BME280;40269;46.742;9.778;2022-12-18T04:16:46;86205.67;;;-15.55;51.79
36520;BME280;40269;46.742;9.778;2022-12-18T04:19:14;86206.07;;;-15.00;49.85
36520;BME280;40269;46.742;9.778;2022-12-18T04:21:41;86211.03;;;-12.99;46.08
36520;BME280;40269;46.742;9.778;2022-12-18T04:24:08;86211.44;;;-13.64;46.70
36520;BME280;40269;46.742;9.778;2022-12-18T04:26:36;86216.02;;;-15.17;49.45
36520;BME280;40269;46.742;9.778;2022-12-18T04:29:03;86218.33;;;-13.92;46.65
36520;BME280;40269;46.742;9.778;2022-12-18T04:31:30;86228.08;;;-14.78;47.53
36520;BME280;40269;46.742;9.778;2022-12-18T04:33:58;86234.51;;;-15.85;50.91
36520;BME280;40269;46.742;9.778;2022-12-18T04:36:25;86241.30;;;-16.79;55.00
36520;BME280;40269;46.742;9.778;2022-12-18T04:38:52;86236.81;;;-16.28;54.01
36520;BME280;40269;46.742;9.778;2022-12-18T04:41:20;86235.26;;;-15.12;50.87
36520;BME280;40269;46.742;9.778;2022-12-18T04:43:47;86237.22;;;-15.40;50.97
36520;BME280;40269;46.742;9.778;2022-12-18T04:46:14;86234.18;;;-15.24;49.41
36520;BME280;40269;46.742;9.778;2022-12-18T04:48:42;86236.21;;;-13.83;47.19
36520;BME280;40269;46.742;9.778;2022-12-18T04:51:12;86236.46;;;-13.50;45.98
36520;BME280;40269;46.742;9.778;2022-12-18T04:53:39;86238.51;;;-15.85;50.67
36520;BME280;40269;46.742;9.778;2022-12-18T04:56:08;86245.52;;;-17.25;54.70
36520;BME280;40269;46.742;9.778;2022-12-18T04:58:36;86240.76;;;-15.72;53.21
36520;BME280;40269;46.742;9.778;2022-12-18T05:01:03;86236.92;;;-13.40;47.96
36520;BME280;40269;46.742;9.778;2022-12-18T05:03:30;86244.20;;;-15.53;50.50
36520;BME280;40269;46.742;9.778;2022-12-18T05:05:57;86250.45;;;-16.66;53.25
36520;BME280;40269;46.742;9.778;2022-12-18T05:08:24;86255.56;;;-17.38;55.54
36520;BME280;40269;46.742;9.778;2022-12-18T05:10:58;86249.75;;;-16.30;54.41
36520;BME280;40269;46.742;9.778;2022-12-18T05:13:25;86251.38;;;-14.53;50.44
36520;BME280;40269;46.742;9.778;2022-12-18T05:15:53;86253.68;;;-14.47;47.98
36520;BME280;40269;46.742;9.778;2022-12-18T05:18:21;86253.58;;;-15.45;51.05
36520;BME280;40269;46.742;9.778;2022-12-18T05:20:49;86254.38;;;-12.82;45.43
36520;BME280;40269;46.742;9.778;2022-12-18T05:23:16;86259.58;;;-12.30;43.77
36520;BME280;40269;46.742;9.778;2022-12-18T05:25:47;86260.75;;;-13.60;45.17
36520;BME280;40269;46.742;9.778;2022-12-18T05:28:14;86265.79;;;-12.84;43.87
36520;BME280;40269;46.742;9.778;2022-12-18T05:30:41;86264.62;;;-13.14;44.02
36520;BME280;40269;46.742;9.778;2022-12-18T05:33:09;86270.85;;;-16.03;51.65
36520;BME280;40269;46.742;9.778;2022-12-18T05:35:36;86273.12;;;-15.07;49.57
36520;BME280;40269;46.742;9.778;2022-12-18T05:38:03;86281.80;;;-16.29;51.53
36520;BME280;40269;46.742;9.778;2022-12-18T05:40:31;86292.05;;;-17.30;55.33
36520;BME280;40269;46.742;9.778;2022-12-18T05:42:58;86289.90;;;-16.53;53.90
36520;BME280;40269;46.742;9.778;2022-12-18T05:45:25;86287.86;;;-15.64;51.54
36520;BME280;40269;46.742;9.778;2022-12-18T05:47:53;86295.78;;;-16.37;52.04
36520;BME280;40269;46.742;9.778;2022-12-18T05:50:20;86293.17;;;-16.98;55.98
36520;BME280;40269;46.742;9.778;2022-12-18T05:52:47;86288.94;;;-15.75;52.54
36520;BME280;40269;46.742;9.778;2022-12-18T05:55:15;86298.07;;;-17.46;56.03
36520;BME280;40269;46.742;9.778;2022-12-18T05:57:42;86296.23;;;-15.52;52.80
36520;BME280;40269;46.742;9.778;2022-12-18T06:00:11;86300.98;;;-16.39;54.22
36520;BME280;40269;46.742;9.778;2022-12-18T06:02:38;86294.84;;;-15.64;52.51
36520;BME280;40269;46.742;9.778;2022-12-18T06:05:05;86300.10;;;-16.41;52.21
36520;BME280;40269;46.742;9.778;2022-12-18T06:07:33;86290.92;;;-14.93;49.70
36520;BME280;40269;46.742;9.778;2022-12-18T06:10:00;86298.69;;;-16.69;53.36
36520;BME280;40269;46.742;9.778;2022-12-18T06:12:28;86301.16;;;-17.27;55.68
36520;BME280;40269;46.742;9.778;2022-12-18T06:14:55;86302.23;;;-16.48;54.27
36520;BME280;40269;46.742;9.778;2022-12-18T06:17:22;86305.23;;;-17.65;57.70
36520;BME280;40269;46.742;9.778;2022-12-18T06:19:50;86305.51;;;-17.39;57.29
36520;BME280;40269;46.742;9.778;2022-12-18T06:22:17;86308.10;;;-16.96;56.49
36520;BME280;40269;46.742;9.778;2022-12-18T06:24:44;86298.49;;;-14.78;51.02
36520;BME280;40269;46.742;9.778;2022-12-18T06:27:12;86298.98;;;-13.68;47.81
36520;BME280;40269;46.742;9.778;2022-12-18T06:29:39;86301.33;;;-15.77;50.57
36520;BME280;40269;46.742;9.778;2022-12-18T06:32:06;86306.63;;;-16.78;54.65
36520;BME280;40269;46.742;9.778;2022-12-18T06:34:34;86311.11;;;-16.75;53.96
36520;BME280;40269;46.742;9.778;2022-12-18T06:37:03;86306.05;;;-15.69;51.05
36520;BME280;40269;46.742;9.778;2022-12-18T06:39:30;86307.10;;;-14.87;50.75
36520;BME280;40269;46.742;9.778;2022-12-18T06:41:57;86304.96;;;-14.91;47.62
36520;BME280;40269;46.742;9.778;2022-12-18T06:44:24;86318.10;;;-17.56;55.34
36520;BME280;40269;46.742;9.778;2022-12-18T06:46:52;86314.43;;;-15.50;52.05
36520;BME280;40269;46.742;9.778;2022-12-18T06:49:19;86316.28;;;-15.84;51.77
36520;BME280;40269;46.742;9.778;2022-12-18T06:51:46;86321.50;;;-16.24;52.53
36520;BME280;40269;46.742;9.778;2022-12-18T06:54:13;86315.33;;;-13.18;46.36
36520;BME280;40269;46.742;9.778;2022-12-18T06:56:41;86314.61;;;-13.12;44.72
36520;BME280;40269;46.742;9.778;2022-12-18T06:59:08;86315.62;;;-13.61;46.66
36520;BME280;40269;46.742;9.778;2022-12-18T07:01:35;86313.81;;;-13.63;45.89
36520;BME280;40269;46.742;9.778;2022-12-18T07:04:03;86309.37;;;-13.10;45.98
36520;BME280;40269;46.742;9.778;2022-12-18T07:06:30;86316.33;;;-15.57;50.08
36520;BME280;40269;46.742;9.778;2022-12-18T07:08:57;86318.13;;;-14.32;48.19
36520;BME280;40269;46.742;9.778;2022-12-18T07:11:24;86319.38;;;-12.68;44.73
36520;BME280;40269;46.742;9.778;2022-12-18T07:13:52;86320.83;;;-11.77;42.61
36520;BME280;40269;46.742;9.778;2022-12-18T07:16:20;86325.88;;;-13.57;44.27
36520;BME280;40269;46.742;9.778;2022-12-18T07:18:47;86332.27;;;-16.11;51.86
36520;BME280;40269;46.742;9.778;2022-12-18T07:21:17;86333.32;;;-13.59;46.92
36520;BME280;40269;46.742;9.778;2022-12-18T07:23:45;86336.86;;;-14.89;48.74
36520;BME280;40269;46.742;9.778;2022-12-18T07:26:14;86345.38;;;-16.27;52.98
36520;BME280;40269;46.742;9.778;2022-12-18T07:28:42;86352.10;;;-17.13;56.67
36520;BME280;40269;46.742;9.778;2022-12-18T07:31:11;86355.18;;;-16.83;55.66
36520;BME280;40269;46.742;9.778;2022-12-18T07:33:38;86350.78;;;-14.96;51.89
36520;BME280;40269;46.742;9.778;2022-12-18T07:36:07;86351.59;;;-14.12;48.97
36520;BME280;40269;46.742;9.778;2022-12-18T07:38:36;86363.89;;;-16.20;52.81
36520;BME280;40269;46.742;9.778;2022-12-18T07:41:04;86370.04;;;-15.66;52.50
36520;BME280;40269;46.742;9.778;2022-12-18T07:43:32;86374.81;;;-15.51;52.61
36520;BME280;40269;46.742;9.778;2022-12-18T07:45:59;86373.84;;;-15.29;51.29
36520;BME280;40269;46.742;9.778;2022-12-18T07:48:27;86381.82;;;-14.53;49.92
36520;BME280;40269;46.742;9.778;2022-12-18T07:50:58;86388.65;;;-15.32;51.65
36520;BME280;40269;46.742;9.778;2022-12-18T07:53:25;86395.71;;;-15.84;52.18
36520;BME280;40269;46.742;9.778;2022-12-18T07:55:55;86401.66;;;-16.03;53.27
36520;BME280;40269;46.742;9.778;2022-12-18T07:58:22;86402.08;;;-14.69;50.55
36520;BME280;40269;46.742;9.778;2022-12-18T08:00:50;86409.65;;;-15.90;54.05
36520;BME280;40269;46.742;9.778;2022-12-18T08:03:17;86408.39;;;-15.19;51.77
36520;BME280;40269;46.742;9.778;2022-12-18T08:05:44;86403.62;;;-12.52;46.07
36520;BME280;40269;46.742;9.778;2022-12-18T08:08:11;86406.08;;;-14.89;51.75
36520;BME280;40269;46.742;9.778;2022-12-18T08:10:39;86408.37;;;-16.12;54.65
36520;BME280;40269;46.742;9.778;2022-12-18T08:13:06;86405.93;;;-13.81;50.45
36520;BME280;40269;46.742;9.778;2022-12-18T08:15:33;86404.57;;;-14.84;52.10
36520;BME280;40269;46.742;9.778;2022-12-18T08:18:01;86401.74;;;-12.80;46.91
36520;BME280;40269;46.742;9.778;2022-12-18T08:20:28;86403.49;;;-13.70;48.81
36520;BME280;40269;46.742;9.778;2022-12-18T08:22:55;86404.48;;;-12.32;45.27
36520;BME280;40269;46.742;9.778;2022-12-18T08:25:22;86405.77;;;-14.37;49.36
36520;BME280;40269;46.742;9.778;2022-12-18T08:27:49;86401.35;;;-14.95;51.07
36520;BME280;40269;46.742;9.778;2022-12-18T08:30:16;86402.48;;;-14.06;50.63
36520;BME280;40269;46.742;9.778;2022-12-18T08:32:43;86402.45;;;-13.78;48.66
36520;BME280;40269;46.742;9.778;2022-12-18T08:35:10;86401.29;;;-14.53;49.08
36520;BME280;40269;46.742;9.778;2022-12-18T08:37:38;86398.78;;;-14.34;48.92
36520;BME280;40269;46.742;9.778;2022-12-18T08:40:06;86394.93;;;-14.63;49.23
36520;BME280;40269;46.742;9.778;2022-12-18T08:42:33;86396.80;;;-15.49;52.37
36520;BME280;40269;46.742;9.778;2022-12-18T08:45:01;86393.52;;;-14.63;50.60
36520;BME280;40269;46.742;9.778;2022-12-18T08:47:29;86397.63;;;-14.71;51.04
36520;BME280;40269;46.742;9.778;2022-12-18T08:49:56;86401.26;;;-14.26;50.90
36520;BME280;40269;46.742;9.778;2022-12-18T08:52:23;86403.74;;;-13.19;46.75
36520;BME280;40269;46.742;9.778;2022-12-18T08:54:51;86403.30;;;-12.77;45.84
36520;BME280;40269;46.742;9.778;2022-12-18T08:57:18;86405.83;;;-14.50;50.65
36520;BME280;40269;46.742;9.778;2022-12-18T08:59:45;86411.85;;;-16.35;55.21
36520;BME280;40269;46.742;9.778;2022-12-18T09:02:12;86408.80;;;-15.39;52.97
36520;BME280;40269;46.742;9.778;2022-12-18T09:04:40;86403.40;;;-13.92;48.55
36520;BME280;40269;46.742;9.778;2022-12-18T09:07:07;86407.10;;;-14.28;49.11
36520;BME280;40269;46.742;9.778;2022-12-18T09:09:34;86400.98;;;-14.66;51.78
36520;BME280;40269;46.742;9.778;2022-12-18T09:12:00;86400.86;;;-14.76;51.93
36520;BME280;40269;46.742;9.778;2022-12-18T09:14:28;86399.22;;;-14.01;49.27
36520;BME280;40269;46.742;9.778;2022-12-18T09:16:55;86398.81;;;-12.72;47.20
36520;BME280;40269;46.742;9.778;2022-12-18T09:19:22;86400.08;;;-11.81;45.42
36520;BME280;40269;46.742;9.778;2022-12-18T09:21:49;86399.88;;;-12.05;45.87
36520;BME280;40269;46.742;9.778;2022-12-18T09:24:16;86399.27;;;-12.27;44.74
36520;BME280;40269;46.742;9.778;2022-12-18T09:26:44;86400.62;;;-10.87;43.03
36520;BME280;40269;46.742;9.778;2022-12-18T09:29:11;86403.34;;;-11.44;44.41
36520;BME280;40269;46.742;9.778;2022-12-18T09:31:38;86397.26;;;-10.83;42.20
36520;BME280;40269;46.742;9.778;2022-12-18T09:34:06;86393.15;;;-10.04;41.73
36520;BME280;40269;46.742;9.778;2022-12-18T09:36:33;86398.42;;;-9.79;41.00
36520;BME280;40269;46.742;9.778;2022-12-18T09:39:00;86393.96;;;-8.61;39.14
36520;BME280;40269;46.742;9.778;2022-12-18T09:41:39;86392.30;;;-8.63;38.89
36520;BME280;40269;46.742;9.778;2022-12-18T09:44:15;86391.50;;;-9.86;40.57
36520;BME280;40269;46.742;9.778;2022-12-18T09:46:49;86387.04;;;-10.13;42.21
36520;BME280;40269;46.742;9.778;2022-12-18T09:49:22;86382.96;;;-9.55;40.87
36520;BME280;40269;46.742;9.778;2022-12-18T09:51:55;86383.94;;;-7.78;40.37
36520;BME280;40269;46.742;9.778;2022-12-18T09:54:27;86383.26;;;-6.81;42.42
36520;BME280;40269;46.742;9.778;2022-12-18T09:56:56;86379.16;;;-9.11;51.66
36520;BME280;40269;46.742;9.778;2022-12-18T09:59:25;86375.02;;;-8.06;52.57
36520;BME280;40269;46.742;9.778;2022-12-18T10:01:53;86373.89;;;-7.24;48.93
36520;BME280;40269;46.742;9.778;2022-12-18T10:04:20;86375.12;;;-5.46;43.16
36520;BME280;40269;46.742;9.778;2022-12-18T10:06:52;86375.74;;;-6.28;45.96
36520;BME280;40269;46.742;9.778;2022-12-18T10:09:28;86370.60;;;-5.37;45.54
36520;BME280;40269;46.742;9.778;2022-12-18T10:12:05;86366.75;;;-3.54;43.07
36520;BME280;40269;46.742;9.778;2022-12-18T10:14:40;86372.58;;;-4.33;43.64
36520;BME280;40269;46.742;9.778;2022-12-18T10:17:23;86377.31;;;-6.04;47.05
36520;BME280;40269;46.742;9.778;2022-12-18T10:19:56;86368.22;;;-4.69;42.80
36520;BME280;40269;46.742;9.778;2022-12-18T10:22:40;86364.49;;;-1.34;36.89
36520;BME280;40269;46.742;9.778;2022-12-18T10:25:19;86365.50;;;-2.03;38.39
36520;BME280;40269;46.742;9.778;2022-12-18T10:27:49;86360.35;;;-3.20;39.71
36520;BME280;40269;46.742;9.778;2022-12-18T10:30:22;86355.26;;;-0.19;34.18
36520;BME280;40269;46.742;9.778;2022-12-18T10:32:49;86354.30;;;-0.46;34.16
36520;BME280;40269;46.742;9.778;2022-12-18T10:35:19;86352.00;;;-0.37;35.21
36520;BME280;40269;46.742;9.778;2022-12-18T10:38:05;86352.95;;;0.46;35.20
36520;BME280;40269;46.742;9.778;2022-12-18T10:40:34;86348.70;;;1.96;30.31
36520;BME280;40269;46.742;9.778;2022-12-18T10:43:15;86352.01;;;-1.19;35.35
36520;BME280;40269;46.742;9.778;2022-12-18T10:46:00;86345.13;;;0.31;34.11
36520;BME280;40269;46.742;9.778;2022-12-18T10:48:28;86346.62;;;1.31;31.88
36520;BME280;40269;46.742;9.778;2022-12-18T10:50:56;86356.17;;;-1.97;37.95
36520;BME280;40269;46.742;9.778;2022-12-18T10:53:26;86350.35;;;0.03;34.38
36520;BME280;40269;46.742;9.778;2022-12-18T10:55:56;86347.42;;;2.52;31.61
36520;BME280;40269;46.742;9.778;2022-12-18T10:58:27;86345.45;;;3.58;29.64
36520;BME280;40269;46.742;9.778;2022-12-18T11:01:05;86346.79;;;3.24;29.33
36520;BME280;40269;46.742;9.778;2022-12-18T11:03:34;86349.69;;;3.37;29.23
36520;BME280;40269;46.742;9.778;2022-12-18T11:06:04;86353.99;;;2.42;31.00
36520;BME280;40269;46.742;9.778;2022-12-18T11:08:32;86353.07;;;-0.35;33.84
36520;BME280;40269;46.742;9.778;2022-12-18T11:10:59;86356.59;;;2.73;31.12
36520;BME280;40269;46.742;9.778;2022-12-18T11:13:29;86348.25;;;0.85;34.35
36520;BME280;40269;46.742;9.778;2022-12-18T11:15:57;86351.23;;;0.25;37.38
36520;BME280;40269;46.742;9.778;2022-12-18T11:18:28;86352.80;;;1.81;31.62
36520;BME280;40269;46.742;9.778;2022-12-18T11:20:57;86354.47;;;2.80;32.18
36520;BME280;40269;46.742;9.778;2022-12-18T11:23:26;86353.63;;;-0.12;35.48
36520;BME280;40269;46.742;9.778;2022-12-18T11:25:56;86349.51;;;3.39;31.34
36520;BME280;40269;46.742;9.778;2022-12-18T11:28:34;86350.02;;;1.62;32.05
36520;BME280;40269;46.742;9.778;2022-12-18T11:31:18;86347.69;;;1.21;33.89
36520;BME280;40269;46.742;9.778;2022-12-18T11:33:50;86347.18;;;2.87;31.06
36520;BME280;40269;46.742;9.778;2022-12-18T11:36:19;86341.37;;;2.94;30.74
36520;BME280;40269;46.742;9.778;2022-12-18T11:38:49;86331.84;;;5.66;28.40
36520;BME280;40269;46.742;9.778;2022-12-18T11:41:23;86328.87;;;4.66;27.98
36520;BME280;40269;46.742;9.778;2022-12-18T11:43:55;86329.55;;;7.67;26.28
36520;BME280;40269;46.742;9.778;2022-12-18T11:46:27;86322.66;;;5.52;27.09
36520;BME280;40269;46.742;9.778;2022-12-18T11:49:01;86328.45;;;7.59;25.95
36520;BME280;40269;46.742;9.778;2022-12-18T11:51:35;86327.70;;;6.36;27.07
36520;BME280;40269;46.742;9.778;2022-12-18T11:54:12;86333.70;;;9.47;23.49
36520;BME280;40269;46.742;9.778;2022-12-18T11:56:43;86330.94;;;6.68;26.30
36520;BME280;40269;46.742;9.778;2022-12-18T11:59:19;86333.93;;;1.99;32.28
36520;BME280;40269;46.742;9.778;2022-12-18T12:01:52;86333.80;;;1.84;32.48
36520;BME280;40269;46.742;9.778;2022-12-18T12:04:40;86328.69;;;5.56;29.22
36520;BME280;40269;46.742;9.778;2022-12-18T12:07:21;86331.22;;;5.88;27.21
36520;BME280;40269;46.742;9.778;2022-12-18T12:09:58;86332.74;;;6.56;26.54
36520;BME280;40269;46.742;9.778;2022-12-18T12:12:34;86331.73;;;9.33;23.30
36520;BME280;40269;46.742;9.778;2022-12-18T12:15:16;86334.51;;;8.71;23.71
36520;BME280;40269;46.742;9.778;2022-12-18T12:17:50;86337.52;;;9.26;22.72
36520;BME280;40269;46.742;9.778;2022-12-18T12:20:25;86333.27;;;10.38;22.36
36520;BME280;40269;46.742;9.778;2022-12-18T12:23:01;86330.67;;;7.80;24.42
36520;BME280;40269;46.742;9.778;2022-12-18T12:25:37;86324.67;;;7.20;24.58
36520;BME280;40269;46.742;9.778;2022-12-18T12:28:15;86324.19;;;7.23;25.90
36520;BME280;40269;46.742;9.778;2022-12-18T12:30:55;86319.99;;;7.49;25.98
36520;BME280;40269;46.742;9.778;2022-12-18T12:33:34;86315.04;;;8.02;23.70
36520;BME280;40269;46.742;9.778;2022-12-18T12:36:09;86314.15;;;6.18;26.27
36520;BME280;40269;46.742;9.778;2022-12-18T12:38:43;86316.92;;;3.71;30.05
36520;BME280;40269;46.742;9.778;2022-12-18T12:41:14;86314.49;;;5.05;27.95
36520;BME280;40269;46.742;9.778;2022-12-18T12:43:46;86314.35;;;6.99;25.73
36520;BME280;40269;46.742;9.778;2022-12-18T12:46:16;86316.79;;;5.76;26.84
36520;BME280;40269;46.742;9.778;2022-12-18T12:48:46;86319.58;;;7.94;25.00
36520;BME280;40269;46.742;9.778;2022-12-18T12:51:18;86324.38;;;4.33;28.53
36520;BME280;40269;46.742;9.778;2022-12-18T12:53:46;86328.68;;;8.19;25.00
36520;BME280;40269;46.742;9.778;2022-12-18T12:56:15;86324.55;;;10.43;22.70
36520;BME280;40269;46.742;9.778;2022-12-18T12:58:49;86322.24;;;11.12;21.44
36520;BME280;40269;46.742;9.778;2022-12-18T13:01:28;86320.07;;;9.51;22.42
36520;BME280;40269;46.742;9.778;2022-12-18T13:04:05;86319.44;;;10.16;21.51
36520;BME280;40269;46.742;9.778;2022-12-18T13:06:43;86320.70;;;6.81;24.51
36520;BME280;40269;46.742;9.778;2022-12-18T13:09:12;86313.26;;;8.73;23.03